createdAt,value
2022-12-20T00:01:35.893Z,35.80
2022-12-20T00:04:06.151Z,38.42
2022-12-20T00:06:35.490Z,37.55
2022-12-20T00:09:06.735Z,33.72
2022-12-20T00:11:34.901Z,34.65
2022-12-20T00:14:03.092Z,27.83
2022-12-20T00:16:31.292Z,36.50
2022-12-20T00:19:03.475Z,35.13
2022-12-20T00:24:00.323Z,31.42
2022-12-20T00:26:30.145Z,34.67
2022-12-20T00:28:58.555Z,30.27
2022-12-20T00:31:28.756Z,31.15
2022-12-20T00:33:57.855Z,32.70
2022-12-20T00:36:28.890Z,31.75
2022-12-20T00:38:58.525Z,35.55
2022-12-20T00:41:27.895Z,29.25
2022-12-20T00:43:56.290Z,32.25
2022-12-20T00:46:24.836Z,31.10
2022-12-20T00:48:53.302Z,27.70
2022-12-20T00:51:24.009Z,28.77
2022-12-20T00:53:53.771Z,37.75
2022-12-20T00:56:22.190Z,30.63
2022-12-20T00:58:50.669Z,32.55
2022-12-20T01:01:21.475Z,32.45
2022-12-20T01:03:51.502Z,36.78
2022-12-20T01:06:20.958Z,29.05
2022-12-20T01:08:49.358Z,32.40
2022-12-20T01:11:20.464Z,29.20
2022-12-20T01:13:50.356Z,28.80
2022-12-20T01:16:20.082Z,29.10
2022-12-20T01:18:48.450Z,28.83
2022-12-20T01:21:18.136Z,30.17
2022-12-20T01:23:46.290Z,30.15
2022-12-20T01:26:16.478Z,36.35
2022-12-20T01:28:48.462Z,33.15
2022-12-20T01:31:18.454Z,28.70
2022-12-20T01:33:47.511Z,32.95
2022-12-20T01:36:18.313Z,32.53
2022-12-20T01:38:46.882Z,30.90
2022-12-20T01:41:16.584Z,32.25
2022-12-20T01:43:52.065Z,31.45
2022-12-20T01:46:22.099Z,29.60
2022-12-20T01:48:53.634Z,26.10
2022-12-20T01:51:22.249Z,30.83
2022-12-20T01:53:54.745Z,28.75
2022-12-20T01:56:22.848Z,31.85
2022-12-20T01:58:53.513Z,33.83
2022-12-20T02:01:22.757Z,30.30
2022-12-20T02:03:52.408Z,28.27
2022-12-20T02:06:23.508Z,30.55
2022-12-20T02:08:52.580Z,31.92
2022-12-20T02:11:33.327Z,29.80
2022-12-20T02:14:10.514Z,28.00
2022-12-20T02:16:45.648Z,31.02
2022-12-20T02:19:27.456Z,31.45
2022-12-20T02:21:57.603Z,36.50
2022-12-20T02:24:49.537Z,30.67
2022-12-20T02:27:45.129Z,29.85
2022-12-20T02:30:16.783Z,29.50
2022-12-20T02:32:50.260Z,30.88
2022-12-20T02:35:22.785Z,32.53
2022-12-20T02:40:22.488Z,29.10
2022-12-20T02:42:53.912Z,28.83
2022-12-20T02:45:24.841Z,29.60
2022-12-20T02:47:55.463Z,30.88
2022-12-20T02:50:25.213Z,31.38
2022-12-20T02:52:53.477Z,29.30
2022-12-20T02:55:24.016Z,27.38
2022-12-20T02:58:00.285Z,31.27
2022-12-20T03:00:33.413Z,22.42
2022-12-20T03:03:19.712Z,29.13
2022-12-20T03:05:48.849Z,29.80
2022-12-20T03:08:17.472Z,27.33
2022-12-20T03:10:45.520Z,25.95
2022-12-20T03:13:13.798Z,28.02
2022-12-20T03:15:43.356Z,29.85
2022-12-20T03:18:11.626Z,27.92
2022-12-20T03:20:40.127Z,27.13
2022-12-20T03:23:08.324Z,28.10
2022-12-20T03:25:36.589Z,27.90
2022-12-20T03:28:04.988Z,26.27
2022-12-20T03:30:33.460Z,23.60
2022-12-20T03:33:02.741Z,27.17
2022-12-20T03:35:30.822Z,25.60
2022-12-20T03:37:58.796Z,28.63
2022-12-20T03:40:26.805Z,30.10
2022-12-20T03:42:54.810Z,30.48
2022-12-20T03:45:22.938Z,25.45
2022-12-20T03:47:50.964Z,27.15
2022-12-20T03:50:20.270Z,27.27
2022-12-20T03:52:48.273Z,31.15
2022-12-20T03:55:16.468Z,27.65
2022-12-20T03:57:44.417Z,33.40
2022-12-20T04:00:13.632Z,31.50
2022-12-20T04:02:41.822Z,29.40
2022-12-20T04:05:10.277Z,30.27
2022-12-20T04:07:39.740Z,32.08
2022-12-20T04:10:08.970Z,28.88
2022-12-20T04:12:37.008Z,30.38
2022-12-20T04:15:05.794Z,28.00
2022-12-20T04:17:33.913Z,27.15
2022-12-20T04:20:18.753Z,29.58
2022-12-20T04:22:48.652Z,27.85
2022-12-20T04:25:18.583Z,26.08
2022-12-20T04:27:46.688Z,29.25
2022-12-20T04:30:15.327Z,27.70
2022-12-20T04:32:43.349Z,30.88
2022-12-20T04:35:11.929Z,28.75
2022-12-20T04:37:39.970Z,23.75
2022-12-20T04:40:10.972Z,26.08
2022-12-20T04:42:38.988Z,22.48
2022-12-20T04:45:08.247Z,26.98
2022-12-20T04:47:36.286Z,26.77
2022-12-20T04:50:04.821Z,28.92
2022-12-20T04:52:50.673Z,28.55
2022-12-20T04:55:20.956Z,27.02
2022-12-20T04:57:49.313Z,29.13
2022-12-20T05:00:17.942Z,29.15
2022-12-20T05:02:46.402Z,27.17
2022-12-20T05:05:15.045Z,23.30
2022-12-20T05:07:43.009Z,26.98
2022-12-20T05:10:11.791Z,25.67
2022-12-20T05:12:41.251Z,26.98
2022-12-20T05:15:10.649Z,27.08
2022-12-20T05:17:38.833Z,25.80
2022-12-20T05:20:08.557Z,24.50
2022-12-20T05:22:54.369Z,26.35
2022-12-20T05:25:40.359Z,32.47
2022-12-20T05:28:09.692Z,26.05
2022-12-20T05:30:37.730Z,24.67
2022-12-20T05:33:06.024Z,25.02
2022-12-20T05:35:34.223Z,27.20
2022-12-20T05:38:02.507Z,28.40
2022-12-20T05:40:30.516Z,29.20
2022-12-20T05:42:58.510Z,25.10
2022-12-20T05:45:28.428Z,27.48
2022-12-20T05:47:56.460Z,23.02
2022-12-20T05:50:24.422Z,25.27
2022-12-20T05:52:52.569Z,25.00
2022-12-20T05:55:20.698Z,24.45
2022-12-20T05:57:49.030Z,28.25
2022-12-20T06:00:17.680Z,24.13
2022-12-20T06:02:47.119Z,21.67
2022-12-20T06:05:15.422Z,21.58
2022-12-20T06:07:44.050Z,26.52
2022-12-20T06:10:12.605Z,26.55
2022-12-20T06:12:40.670Z,26.00
2022-12-20T06:15:10.849Z,28.48
2022-12-20T06:17:38.920Z,26.85
2022-12-20T06:20:09.715Z,29.55
2022-12-20T06:22:38.684Z,27.60
2022-12-20T06:25:09.186Z,25.55
2022-12-20T06:27:37.299Z,28.67
2022-12-20T06:30:06.005Z,26.40
2022-12-20T06:32:34.224Z,27.65
2022-12-20T06:35:02.309Z,26.08
2022-12-20T06:37:32.165Z,25.25
2022-12-20T06:40:00.567Z,27.80
2022-12-20T06:42:28.637Z,31.98
2022-12-20T06:44:56.612Z,23.92
2022-12-20T06:47:24.697Z,27.60
2022-12-20T06:49:52.648Z,37.83
2022-12-20T06:52:21.154Z,33.17
2022-12-20T06:54:50.609Z,23.70
2022-12-20T06:57:19.410Z,28.80
2022-12-20T06:59:47.519Z,25.58
2022-12-20T07:02:15.831Z,26.80
2022-12-20T07:04:44.016Z,23.20
2022-12-20T07:07:13.460Z,25.60
2022-12-20T07:09:42.755Z,25.95
2022-12-20T07:12:12.258Z,29.38
2022-12-20T07:14:40.317Z,21.23
2022-12-20T07:17:08.426Z,23.77
2022-12-20T07:19:37.278Z,33.28
2022-12-20T07:22:06.438Z,28.00
2022-12-20T07:24:34.846Z,31.60
2022-12-20T07:27:03.488Z,26.98
2022-12-20T07:29:32.907Z,32.80
2022-12-20T07:32:01.215Z,29.52
2022-12-20T07:34:29.506Z,32.05
2022-12-20T07:36:57.685Z,29.00
2022-12-20T07:39:25.983Z,35.05
2022-12-20T07:41:54.770Z,32.15
2022-12-20T07:44:26.199Z,33.42
2022-12-20T07:46:55.566Z,36.70
2022-12-20T07:49:23.801Z,34.80
2022-12-20T07:51:54.717Z,35.72
2022-12-20T07:54:24.983Z,32.13
2022-12-20T07:56:54.579Z,33.92
2022-12-20T07:59:25.879Z,34.75
2022-12-20T08:01:59.444Z,34.97
2022-12-20T08:04:32.535Z,38.50
2022-12-20T08:07:01.442Z,45.42
2022-12-20T08:09:31.037Z,36.13
2022-12-20T08:11:59.357Z,35.92
2022-12-20T08:14:27.523Z,43.97
2022-12-20T08:16:56.955Z,42.38
2022-12-20T08:19:31.830Z,43.08
2022-12-20T08:22:00.427Z,37.00
2022-12-20T08:24:28.697Z,45.10
2022-12-20T08:26:57.927Z,40.75
2022-12-20T08:29:25.933Z,40.38
2022-12-20T08:31:54.041Z,42.95
2022-12-20T08:34:23.473Z,43.30
2022-12-20T08:36:51.766Z,38.40
2022-12-20T08:39:19.909Z,36.67
2022-12-20T08:41:47.936Z,45.00
2022-12-20T08:44:16.001Z,41.17
2022-12-20T08:46:44.010Z,41.45
2022-12-20T08:49:12.146Z,43.65
2022-12-20T08:51:41.745Z,39.30
2022-12-20T08:54:09.858Z,43.00
2022-12-20T08:56:37.915Z,39.47
2022-12-20T08:59:06.563Z,38.40
2022-12-20T09:01:36.974Z,39.55
2022-12-20T09:04:05.871Z,34.78
2022-12-20T09:06:36.129Z,34.60
2022-12-20T09:09:07.030Z,32.15
2022-12-20T09:11:35.734Z,31.95
2022-12-20T09:14:03.996Z,31.55
2022-12-20T09:16:33.894Z,33.05
2022-12-20T09:19:05.923Z,29.58
2022-12-20T09:21:35.060Z,32.05
2022-12-20T09:24:06.221Z,25.50
2022-12-20T09:26:36.181Z,30.92
2022-12-20T09:29:05.302Z,26.52
2022-12-20T09:31:33.430Z,25.80
2022-12-20T09:34:01.909Z,26.10
2022-12-20T09:36:31.142Z,27.23
2022-12-20T09:38:59.392Z,28.45
2022-12-20T09:41:30.907Z,23.95
2022-12-20T09:44:06.134Z,32.10
2022-12-20T09:46:35.211Z,23.80
2022-12-20T09:49:04.220Z,26.08
2022-12-20T09:51:44.583Z,25.15
2022-12-20T09:54:19.773Z,27.45
2022-12-20T09:56:56.151Z,21.67
2022-12-20T09:59:25.689Z,20.25
2022-12-20T10:01:54.403Z,21.48
2022-12-20T10:04:24.561Z,19.92
2022-12-20T10:07:02.055Z,25.50
2022-12-20T10:09:48.855Z,24.48
2022-12-20T10:12:25.773Z,27.02
2022-12-20T10:15:05.560Z,17.08
2022-12-20T10:17:41.810Z,24.58
2022-12-20T10:20:21.089Z,20.05
2022-12-20T10:22:53.379Z,26.25
2022-12-20T10:27:52.521Z,21.88
2022-12-20T10:30:24.944Z,24.00
2022-12-20T10:32:54.736Z,25.33
2022-12-20T10:35:26.260Z,20.92
2022-12-20T10:38:08.851Z,21.42
2022-12-20T10:41:18.738Z,22.20
2022-12-20T10:43:28.637Z,18.90
2022-12-20T10:46:00.369Z,18.85
2022-12-20T10:48:31.965Z,20.33
2022-12-20T10:51:02.094Z,21.88
2022-12-20T10:53:31.288Z,19.88
2022-12-20T10:56:17.308Z,19.15
2022-12-20T10:58:53.778Z,22.02
2022-12-20T11:01:31.430Z,20.88
2022-12-20T11:04:01.769Z,18.77
2022-12-20T11:06:42.171Z,21.10
2022-12-20T11:09:24.907Z,15.27
2022-12-20T11:12:01.233Z,20.05
2022-12-20T11:14:38.059Z,17.10
2022-12-20T11:17:21.142Z,17.42
2022-12-20T11:20:01.164Z,16.05
2022-12-20T11:22:35.999Z,17.02
2022-12-20T11:25:18.799Z,16.50
2022-12-20T11:27:57.340Z,19.00
2022-12-20T11:30:27.379Z,18.15
2022-12-20T11:33:29.104Z,18.45
2022-12-20T11:36:02.472Z,19.17
2022-12-20T11:38:41.971Z,16.73
2022-12-20T11:41:16.872Z,21.65
2022-12-20T11:44:24.431Z,18.10
2022-12-20T11:46:57.687Z,17.83
2022-12-20T11:49:38.953Z,22.35
2022-12-20T11:52:16.652Z,17.88
2022-12-20T11:54:47.078Z,19.05
2022-12-20T11:57:19.366Z,17.40
2022-12-20T12:02:22.415Z,16.60
2022-12-20T12:04:56.404Z,18.40
2022-12-20T12:07:29.957Z,15.60
2022-12-20T12:10:00.823Z,18.77
2022-12-20T12:12:32.246Z,20.50
2022-12-20T12:15:08.735Z,17.27
2022-12-20T12:17:42.989Z,19.70
2022-12-20T12:20:22.555Z,15.10
2022-12-20T12:22:56.710Z,19.27
2022-12-20T12:25:25.288Z,15.80
2022-12-20T12:27:53.494Z,17.13
2022-12-20T12:30:22.590Z,15.13
2022-12-20T12:32:54.689Z,17.85
2022-12-20T12:35:45.215Z,18.55
2022-12-20T12:38:46.483Z,17.50
2022-12-20T12:41:44.903Z,17.52
2022-12-20T12:44:35.694Z,18.30
2022-12-20T12:47:06.881Z,15.32
2022-12-20T12:49:35.247Z,17.05
2022-12-20T12:52:07.073Z,16.73
2022-12-20T12:54:40.079Z,17.40
2022-12-20T12:57:08.721Z,14.85
2022-12-20T12:59:48.064Z,17.27
2022-12-20T13:02:36.123Z,15.70
2022-12-20T13:05:31.171Z,15.15
2022-12-20T13:08:00.760Z,18.35
2022-12-20T13:11:01.657Z,17.08
2022-12-20T13:13:30.091Z,13.50
2022-12-20T13:16:55.603Z,15.65
2022-12-20T13:19:19.018Z,17.90
2022-12-20T13:21:48.649Z,17.40
2022-12-20T13:24:53.414Z,15.68
2022-12-20T13:27:30.963Z,20.95
2022-12-20T13:30:03.105Z,15.20
2022-12-20T13:32:55.215Z,15.38
2022-12-20T13:35:33.054Z,13.93
2022-12-20T13:38:04.791Z,14.77
2022-12-20T13:40:37.169Z,15.50
2022-12-20T13:45:39.294Z,16.52
2022-12-20T13:48:11.621Z,17.83
2022-12-20T13:50:41.073Z,19.50
2022-12-20T13:53:17.703Z,20.95
2022-12-20T13:55:47.687Z,15.73
2022-12-20T13:58:19.456Z,20.63
2022-12-20T14:00:48.535Z,15.15
2022-12-20T14:03:23.754Z,21.52
2022-12-20T14:05:56.801Z,15.23
2022-12-20T14:08:27.244Z,17.05
2022-12-20T14:10:55.380Z,14.20
2022-12-20T14:13:26.326Z,16.58
2022-12-20T14:15:56.285Z,15.63
2022-12-20T14:18:26.137Z,18.00
2022-12-20T14:20:57.040Z,15.98
2022-12-20T14:23:27.776Z,18.42
2022-12-20T14:25:57.894Z,17.65
2022-12-20T14:28:30.971Z,16.42
2022-12-20T14:31:01.167Z,20.27
2022-12-20T14:33:35.715Z,17.98
2022-12-20T14:36:12.459Z,18.67
2022-12-20T14:38:41.528Z,17.98
2022-12-20T14:41:35.003Z,17.23
2022-12-20T14:44:15.331Z,22.10
2022-12-20T14:46:49.572Z,21.05
2022-12-20T14:49:26.288Z,21.45
2022-12-20T14:52:06.940Z,17.70
2022-12-20T14:57:25.905Z,20.30
2022-12-20T15:00:25.065Z,17.85
2022-12-20T15:03:00.420Z,20.67
2022-12-20T15:05:48.008Z,17.70
2022-12-20T15:08:19.362Z,20.80
2022-12-20T15:10:54.693Z,16.98
2022-12-20T15:13:25.948Z,20.55
2022-12-20T15:15:55.659Z,22.30
2022-12-20T15:18:23.667Z,24.92
2022-12-20T15:21:01.433Z,21.88
2022-12-20T15:23:29.571Z,20.65
2022-12-20T15:25:57.733Z,19.58
2022-12-20T15:28:26.731Z,23.52
2022-12-20T15:30:56.514Z,19.50
2022-12-20T15:33:26.384Z,22.83
2022-12-20T15:35:54.829Z,26.50
2022-12-20T15:38:40.528Z,22.08
2022-12-20T15:41:15.202Z,25.90
2022-12-20T15:43:43.312Z,19.40
2022-12-20T15:46:13.047Z,21.73
2022-12-20T15:48:41.107Z,23.80
2022-12-20T15:51:16.404Z,23.15
2022-12-20T15:53:44.614Z,32.15
2022-12-20T15:56:18.589Z,24.75
2022-12-20T15:58:47.417Z,25.90
2022-12-20T16:01:21.582Z,25.17
2022-12-20T16:03:49.811Z,21.88
2022-12-20T16:06:17.947Z,23.70
2022-12-20T16:08:46.079Z,23.55
2022-12-20T16:11:21.597Z,26.33
2022-12-20T16:13:49.804Z,24.80
2022-12-20T16:16:21.498Z,26.00
2022-12-20T16:18:50.212Z,27.13
2022-12-20T16:21:19.133Z,29.20
2022-12-20T16:23:48.390Z,25.70
2022-12-20T16:26:17.093Z,24.23
2022-12-20T16:28:45.434Z,27.42
2022-12-20T16:31:22.749Z,29.65
2022-12-20T16:33:50.885Z,28.98
2022-12-20T16:36:19.453Z,31.67
2022-12-20T16:38:47.727Z,31.70
2022-12-20T16:41:17.224Z,29.70
2022-12-20T16:43:45.764Z,30.73
2022-12-20T16:46:15.157Z,29.35
2022-12-20T16:48:45.928Z,33.88
2022-12-20T16:51:23.672Z,33.78
2022-12-20T16:54:18.052Z,33.97
2022-12-20T16:56:40.306Z,35.67
2022-12-20T16:59:19.367Z,29.45
2022-12-20T17:01:50.220Z,33.03
2022-12-20T17:04:20.361Z,31.27
2022-12-20T17:06:48.514Z,32.40
2022-12-20T17:09:16.903Z,29.13
2022-12-20T17:11:45.130Z,28.17
2022-12-20T17:14:13.683Z,29.23
2022-12-20T17:16:41.869Z,29.40
2022-12-20T17:19:10.878Z,29.15
2022-12-20T17:24:29.253Z,30.85
2022-12-20T17:26:57.298Z,26.50
2022-12-20T17:29:28.455Z,25.92
2022-12-20T17:31:56.536Z,27.48
2022-12-20T17:34:26.484Z,22.85
2022-12-20T17:36:57.451Z,25.58
2022-12-20T17:39:26.468Z,22.38
2022-12-20T17:41:55.961Z,30.75
2022-12-20T17:44:26.126Z,30.02
2022-12-20T17:46:54.837Z,22.17
2022-12-20T17:49:23.546Z,32.00
2022-12-20T17:51:52.703Z,27.52
2022-12-20T17:54:32.073Z,23.55
2022-12-20T17:57:03.153Z,29.02
2022-12-20T17:59:31.148Z,23.27
2022-12-20T18:01:59.499Z,22.25
2022-12-20T18:04:27.984Z,27.60
2022-12-20T18:06:57.269Z,28.02
2022-12-20T18:09:26.786Z,25.13
2022-12-20T18:11:55.090Z,24.15
2022-12-20T18:14:23.171Z,27.83
2022-12-20T18:16:51.200Z,26.88
2022-12-20T18:19:20.463Z,27.98
2022-12-20T18:21:48.689Z,26.60
2022-12-20T18:24:17.325Z,25.98
2022-12-20T18:26:47.339Z,27.35
2022-12-20T18:29:15.510Z,27.45
2022-12-20T18:31:43.604Z,24.88
2022-12-20T18:34:13.084Z,26.27
2022-12-20T18:36:41.193Z,26.45
2022-12-20T18:39:09.635Z,24.95
2022-12-20T18:41:37.854Z,26.98
2022-12-20T18:44:07.935Z,28.85
2022-12-20T18:46:35.966Z,22.02
2022-12-20T18:49:04.618Z,27.05
2022-12-20T18:51:36.669Z,25.52
2022-12-20T18:54:05.858Z,24.30
2022-12-20T18:56:35.978Z,26.60
2022-12-20T18:59:10.709Z,27.80
2022-12-20T19:01:41.992Z,22.70
2022-12-20T19:04:10.922Z,24.95
2022-12-20T19:06:39.393Z,25.02
2022-12-20T19:09:09.951Z,24.58
2022-12-20T19:11:39.047Z,24.83
2022-12-20T19:14:07.655Z,27.08
2022-12-20T19:16:36.236Z,26.73
2022-12-20T19:19:05.833Z,24.98
2022-12-20T19:21:35.876Z,23.05
2022-12-20T19:24:07.043Z,28.88
2022-12-20T19:26:36.492Z,26.65
2022-12-20T19:29:05.332Z,26.05
2022-12-20T19:31:36.377Z,30.80
2022-12-20T19:34:08.663Z,25.95
2022-12-20T19:36:38.560Z,23.50
2022-12-20T19:39:08.584Z,30.27
2022-12-20T19:41:36.774Z,30.95
2022-12-20T19:44:06.214Z,29.27
2022-12-20T19:46:34.603Z,26.55
2022-12-20T19:49:03.402Z,32.05
2022-12-20T19:51:33.236Z,30.08
2022-12-20T19:54:01.753Z,29.52
2022-12-20T19:56:35.148Z,30.23
2022-12-20T19:59:03.632Z,27.30
2022-12-20T20:01:31.875Z,36.53
2022-12-20T20:04:01.794Z,27.98
2022-12-20T20:06:30.150Z,28.08
2022-12-20T20:09:00.494Z,28.30
2022-12-20T20:11:29.026Z,30.30
2022-12-20T20:13:57.024Z,26.23
2022-12-20T20:16:25.279Z,29.35
2022-12-20T20:18:53.600Z,30.00
2022-12-20T20:21:23.870Z,27.15
2022-12-20T20:23:53.616Z,26.48
2022-12-20T20:26:25.377Z,23.40
2022-12-20T20:28:54.022Z,31.52
2022-12-20T20:31:23.000Z,28.50
2022-12-20T20:33:52.648Z,24.65
2022-12-20T20:36:22.167Z,28.13
2022-12-20T20:38:51.674Z,29.23
2022-12-20T20:41:20.256Z,27.58
2022-12-20T20:43:49.865Z,28.42
2022-12-20T20:46:18.833Z,29.25
2022-12-20T20:48:47.233Z,27.00
2022-12-20T20:51:15.533Z,35.80
2022-12-20T20:53:43.459Z,29.45
2022-12-20T20:56:11.859Z,25.08
2022-12-20T20:58:39.922Z,29.77
2022-12-20T21:01:09.797Z,32.88
2022-12-20T21:03:38.755Z,30.90
2022-12-20T21:06:37.243Z,27.20
2022-12-20T21:08:56.093Z,26.05
2022-12-20T21:11:24.550Z,29.48
2022-12-20T21:13:54.287Z,30.52
2022-12-20T21:16:24.465Z,27.20
2022-12-20T21:18:52.960Z,30.08
2022-12-20T21:21:21.382Z,30.33
2022-12-20T21:23:49.609Z,28.75
2022-12-20T21:26:18.925Z,31.88
2022-12-20T21:28:47.261Z,33.67
2022-12-20T21:31:17.569Z,28.60
2022-12-20T21:33:47.134Z,29.52
2022-12-20T21:36:16.617Z,30.40
2022-12-20T21:38:48.785Z,33.15
2022-12-20T21:41:17.514Z,32.40
2022-12-20T21:43:45.861Z,27.42
2022-12-20T21:46:13.855Z,29.52
2022-12-20T21:48:43.301Z,31.10
2022-12-20T21:51:14.875Z,33.17
2022-12-20T21:53:44.869Z,30.48
2022-12-20T21:56:13.424Z,24.60
2022-12-20T21:58:41.442Z,31.20
2022-12-20T22:01:09.811Z,28.15
2022-12-20T22:03:38.669Z,28.27
2022-12-20T22:06:07.091Z,33.67
2022-12-20T22:08:37.721Z,28.98
2022-12-20T22:11:07.247Z,30.25
2022-12-20T22:13:42.450Z,25.67
2022-12-20T22:16:11.948Z,33.05
2022-12-20T22:18:40.980Z,34.47
2022-12-20T22:21:10.780Z,27.13
2022-12-20T22:23:40.714Z,28.20
2022-12-20T22:26:10.448Z,37.40
2022-12-20T22:28:39.204Z,35.42
2022-12-20T22:31:09.321Z,33.58
2022-12-20T22:33:38.383Z,29.98
2022-12-20T22:36:07.551Z,32.03
2022-12-20T22:38:36.026Z,34.45
2022-12-20T22:41:10.132Z,30.75
2022-12-20T22:43:38.708Z,35.53
2022-12-20T22:46:07.511Z,33.45
2022-12-20T22:48:35.719Z,32.88
2022-12-20T22:51:06.439Z,33.38
2022-12-20T22:53:35.225Z,33.10
2022-12-20T22:56:04.214Z,35.33
2022-12-20T22:58:36.971Z,39.50
2022-12-20T23:01:07.341Z,37.92
2022-12-20T23:03:35.995Z,34.88
2022-12-20T23:06:05.823Z,34.78
2022-12-20T23:08:35.972Z,36.03
2022-12-20T23:11:22.707Z,38.97
2022-12-20T23:14:09.850Z,40.08
2022-12-20T23:16:38.619Z,37.28
2022-12-20T23:19:06.728Z,36.33
2022-12-20T23:21:52.532Z,39.75
2022-12-20T23:24:20.744Z,39.10
2022-12-20T23:26:48.800Z,36.85
2022-12-20T23:29:18.136Z,44.22
2022-12-20T23:31:46.294Z,34.97
2022-12-20T23:34:14.525Z,42.90
2022-12-20T23:36:42.656Z,45.10
2022-12-20T23:39:10.832Z,48.05
2022-12-20T23:41:38.898Z,48.30
2022-12-20T23:44:07.473Z,45.45
2022-12-20T23:46:37.021Z,43.55
2022-12-20T23:49:05.059Z,46.78
2022-12-20T23:51:34.521Z,49.22
2022-12-20T23:54:02.650Z,47.95
2022-12-20T23:56:30.701Z,48.83
2022-12-20T23:58:58.709Z,52.95
